Terminal Aerodrome Forecast
Issued by NWS

Home | Current Version | Previous Version | Text Only | Print | Product List | Glossary On
Versions: 1 2 3 4 5 6 7 8 9 10 11 12 13
784
FTAK31 PAJN 291733
TAFAPG
TAF
PAPG 291733Z 2918/3018 24007KT P6SM SCT025 BKN150
     FM292100 08006KT P6SM BKN035 BKN150
     FM301200 VRB04KT P6SM BKN025 BKN160
      AMD LTD TO CLD VIS AND WIND 3006/3015=

USA.gov is the U.S. government's official web portal to all federal, state and local government web resources and services.